sensor_id;sensor_type;location;lat;lon;timestamp;pressure;altitude;pressure_sealevel;temperature;humidity
73624;BME280;61921;53.226;-1.296;2022-09-09T00:00:15;99294.89;;;16.08;90.70
73624;BME280;61921;53.226;-1.296;2022-09-09T00:02:36;99296.46;;;16.00;90.96
73624;BME280;61921;53.226;-1.296;2022-09-09T00:05:12;99298.95;;;15.74;91.23
73624;BME280;61921;53.226;-1.296;2022-09-09T00:07:36;99297.02;;;15.66;91.56
73624;BME280;61921;53.226;-1.296;2022-09-09T00:09:59;99296.95;;;15.72;91.55
73624;BME280;61921;53.226;-1.296;2022-09-09T00:12:24;99295.26;;;15.72;91.38
73624;BME280;61921;53.226;-1.296;2022-09-09T00:14:49;99294.72;;;15.60;92.13
73624;BME280;61921;53.226;-1.296;2022-09-09T00:17:14;99294.89;;;15.57;92.50
73624;BME280;61921;53.226;-1.296;2022-09-09T00:19:38;99291.48;;;15.59;92.46
73624;BME280;61921;53.226;-1.296;2022-09-09T00:22:08;99293.26;;;15.46;93.08
73624;BME280;61921;53.226;-1.296;2022-09-09T00:24:27;99296.22;;;15.56;93.14
73624;BME280;61921;53.226;-1.296;2022-09-09T00:26:54;99294.16;;;15.53;92.87
73624;BME280;61921;53.226;-1.296;2022-09-09T00:29:22;99298.34;;;15.65;92.91
73624;BME280;61921;53.226;-1.296;2022-09-09T00:31:45;99300.21;;;15.82;91.61
73624;BME280;61921;53.226;-1.296;2022-09-09T00:34:12;99301.64;;;15.86;91.50
73624;BME280;61921;53.226;-1.296;2022-09-09T00:36:32;99300.81;;;15.63;92.62
73624;BME280;61921;53.226;-1.296;2022-09-09T00:38:59;99297.58;;;15.72;92.36
73624;BME280;61921;53.226;-1.296;2022-09-09T00:41:29;99297.15;;;15.72;92.55
73624;BME280;61921;53.226;-1.296;2022-09-09T00:43:56;99300.92;;;15.84;92.28
73624;BME280;61921;53.226;-1.296;2022-09-09T00:46:34;99296.74;;;15.84;91.77
73624;BME280;61921;53.226;-1.296;2022-09-09T00:48:47;99298.73;;;15.85;91.90
73624;BME280;61921;53.226;-1.296;2022-09-09T00:51:10;99296.23;;;15.73;92.03
73624;BME280;61921;53.226;-1.296;2022-09-09T00:53:36;99295.04;;;15.70;92.51
73624;BME280;61921;53.226;-1.296;2022-09-09T00:56:02;99296.17;;;15.84;92.08
73624;BME280;61921;53.226;-1.296;2022-09-09T00:58:20;99293.62;;;15.54;92.80
73624;BME280;61921;53.226;-1.296;2022-09-09T01:00:50;99292.53;;;15.49;92.93
73624;BME280;61921;53.226;-1.296;2022-09-09T01:03:20;99295.31;;;15.58;93.14
73624;BME280;61921;53.226;-1.296;2022-09-09T01:05:41;99293.96;;;15.49;93.57
73624;BME280;61921;53.226;-1.296;2022-09-09T01:08:09;99294.49;;;15.41;93.53
73624;BME280;61921;53.226;-1.296;2022-09-09T01:10:36;99295.11;;;15.53;93.62
73624;BME280;61921;53.226;-1.296;2022-09-09T01:12:54;99293.80;;;15.65;93.18
73624;BME280;61921;53.226;-1.296;2022-09-09T01:15:22;99293.46;;;15.80;92.06
73624;BME280;61921;53.226;-1.296;2022-09-09T01:17:51;99294.49;;;15.87;91.27
73624;BME280;61921;53.226;-1.296;2022-09-09T01:20:13;99294.43;;;15.94;91.32
73624;BME280;61921;53.226;-1.296;2022-09-09T01:22:40;99295.11;;;15.75;91.33
73624;BME280;61921;53.226;-1.296;2022-09-09T01:25:10;99295.54;;;15.63;92.17
73624;BME280;61921;53.226;-1.296;2022-09-09T01:27:26;99295.83;;;15.64;92.32
73624;BME280;61921;53.226;-1.296;2022-09-09T01:29:51;99297.40;;;15.71;92.24
73624;BME280;61921;53.226;-1.296;2022-09-09T01:32:37;99298.19;;;15.68;92.22
73624;BME280;61921;53.226;-1.296;2022-09-09T01:34:43;99301.23;;;15.95;91.38
73624;BME280;61921;53.226;-1.296;2022-09-09T01:37:09;99304.43;;;16.00;91.06
73624;BME280;61921;53.226;-1.296;2022-09-09T01:39:34;99305.31;;;16.08;90.74
73624;BME280;61921;53.226;-1.296;2022-09-09T01:41:59;99301.83;;;15.81;91.98
73624;BME280;61921;53.226;-1.296;2022-09-09T01:44:25;99301.49;;;15.80;92.18
73624;BME280;61921;53.226;-1.296;2022-09-09T01:46:50;99298.89;;;15.69;92.34
73624;BME280;61921;53.226;-1.296;2022-09-09T01:49:16;99297.61;;;15.65;93.15
73624;BME280;61921;53.226;-1.296;2022-09-09T01:51:42;99296.99;;;15.65;92.95
73624;BME280;61921;53.226;-1.296;2022-09-09T01:54:07;99292.79;;;15.85;92.39
73624;BME280;61921;53.226;-1.296;2022-09-09T01:56:39;99293.23;;;15.90;91.85
73624;BME280;61921;53.226;-1.296;2022-09-09T01:59:04;99292.12;;;15.90;91.63
73624;BME280;61921;53.226;-1.296;2022-09-09T02:01:31;99294.01;;;15.94;91.18
73624;BME280;61921;53.226;-1.296;2022-09-09T02:03:52;99293.08;;;16.04;90.40
73624;BME280;61921;53.226;-1.296;2022-09-09T02:06:22;99293.80;;;16.42;88.95
73624;BME280;61921;53.226;-1.296;2022-09-09T02:08:42;99292.79;;;16.56;88.47
73624;BME280;61921;53.226;-1.296;2022-09-09T02:11:06;99289.80;;;16.52;87.82
73624;BME280;61921;53.226;-1.296;2022-09-09T02:13:32;99286.56;;;16.77;87.46
73624;BME280;61921;53.226;-1.296;2022-09-09T02:15:57;99283.74;;;16.66;87.27
73624;BME280;61921;53.226;-1.296;2022-09-09T02:18:24;99281.82;;;16.36;88.53
73624;BME280;61921;53.226;-1.296;2022-09-09T02:20:46;99280.16;;;16.34;88.61
73624;BME280;61921;53.226;-1.296;2022-09-09T02:23:12;99281.84;;;16.21;89.39
73624;BME280;61921;53.226;-1.296;2022-09-09T02:25:37;99282.21;;;16.07;90.26
73624;BME280;61921;53.226;-1.296;2022-09-09T02:28:03;99285.80;;;15.97;90.88
73624;BME280;61921;53.226;-1.296;2022-09-09T02:30:29;99288.67;;;15.91;91.09
73624;BME280;61921;53.226;-1.296;2022-09-09T02:32:55;99291.03;;;15.84;91.60
73624;BME280;61921;53.226;-1.296;2022-09-09T02:35:22;99290.63;;;15.70;92.30
73624;BME280;61921;53.226;-1.296;2022-09-09T02:37:45;99291.18;;;15.89;91.37
73624;BME280;61921;53.226;-1.296;2022-09-09T02:40:12;99291.21;;;15.76;92.02
73624;BME280;61921;53.226;-1.296;2022-09-09T02:42:39;99292.27;;;15.65;92.90
73624;BME280;61921;53.226;-1.296;2022-09-09T02:45:00;99293.43;;;15.54;93.39
73624;BME280;61921;53.226;-1.296;2022-09-09T02:47:31;99289.87;;;15.48;93.56
73624;BME280;61921;53.226;-1.296;2022-09-09T02:50:00;99289.58;;;15.46;93.05
73624;BME280;61921;53.226;-1.296;2022-09-09T02:52:19;99288.26;;;15.29;93.70
73624;BME280;61921;53.226;-1.296;2022-09-09T02:54:43;99287.27;;;15.18;94.74
73624;BME280;61921;53.226;-1.296;2022-09-09T02:57:11;99284.60;;;15.18;95.34
73624;BME280;61921;53.226;-1.296;2022-09-09T02:59:33;99286.58;;;15.15;95.63
73624;BME280;61921;53.226;-1.296;2022-09-09T03:01:58;99286.26;;;15.16;95.85
73624;BME280;61921;53.226;-1.296;2022-09-09T03:04:24;99285.09;;;15.11;96.20
73624;BME280;61921;53.226;-1.296;2022-09-09T03:06:50;99285.94;;;15.12;95.99
73624;BME280;61921;53.226;-1.296;2022-09-09T03:09:15;99282.83;;;15.05;96.17
73624;BME280;61921;53.226;-1.296;2022-09-09T03:11:40;99287.36;;;15.11;96.63
73624;BME280;61921;53.226;-1.296;2022-09-09T03:14:05;99285.11;;;15.23;96.32
73624;BME280;61921;53.226;-1.296;2022-09-09T03:16:30;99282.56;;;15.40;95.64
73624;BME280;61921;53.226;-1.296;2022-09-09T03:18:56;99287.07;;;15.51;95.16
73624;BME280;61921;53.226;-1.296;2022-09-09T03:21:21;99286.30;;;15.63;94.48
73624;BME280;61921;53.226;-1.296;2022-09-09T03:23:47;99286.53;;;15.59;94.17
73624;BME280;61921;53.226;-1.296;2022-09-09T03:26:12;99286.19;;;15.42;95.11
73624;BME280;61921;53.226;-1.296;2022-09-09T03:28:38;99289.52;;;15.54;95.16
73624;BME280;61921;53.226;-1.296;2022-09-09T03:31:04;99288.09;;;15.38;95.53
73624;BME280;61921;53.226;-1.296;2022-09-09T03:33:29;99289.12;;;15.32;95.94
73624;BME280;61921;53.226;-1.296;2022-09-09T03:35:55;99290.91;;;15.39;96.24
73624;BME280;61921;53.226;-1.296;2022-09-09T03:38:20;99293.04;;;15.30;96.48
73624;BME280;61921;53.226;-1.296;2022-09-09T03:40:50;99295.66;;;15.53;96.02
73624;BME280;61921;53.226;-1.296;2022-09-09T03:43:11;99293.46;;;15.39;95.83
73624;BME280;61921;53.226;-1.296;2022-09-09T03:45:36;99299.11;;;15.45;96.26
73624;BME280;61921;53.226;-1.296;2022-09-09T03:48:02;99298.07;;;15.31;96.64
73624;BME280;61921;53.226;-1.296;2022-09-09T03:50:27;99295.34;;;15.32;97.11
73624;BME280;61921;53.226;-1.296;2022-09-09T03:52:52;99297.61;;;15.36;97.25
73624;BME280;61921;53.226;-1.296;2022-09-09T03:55:18;99296.38;;;15.37;96.97
73624;BME280;61921;53.226;-1.296;2022-09-09T03:57:44;99299.10;;;15.55;96.42
73624;BME280;61921;53.226;-1.296;2022-09-09T04:00:10;99296.90;;;15.54;95.84
73624;BME280;61921;53.226;-1.296;2022-09-09T04:02:35;99303.40;;;15.57;95.81
73624;BME280;61921;53.226;-1.296;2022-09-09T04:05:00;99299.76;;;15.42;96.05
73624;BME280;61921;53.226;-1.296;2022-09-09T04:07:26;99298.21;;;15.40;95.90
73624;BME280;61921;53.226;-1.296;2022-09-09T04:09:52;99301.59;;;15.53;95.50
73624;BME280;61921;53.226;-1.296;2022-09-09T04:12:17;99302.77;;;15.39;95.49
73624;BME280;61921;53.226;-1.296;2022-09-09T04:14:42;99305.24;;;15.27;96.15
73624;BME280;61921;53.226;-1.296;2022-09-09T04:17:08;99304.68;;;15.40;95.94
73624;BME280;61921;53.226;-1.296;2022-09-09T04:19:33;99304.06;;;15.47;95.53
73624;BME280;61921;53.226;-1.296;2022-09-09T04:21:59;99304.59;;;15.57;95.11
73624;BME280;61921;53.226;-1.296;2022-09-09T04:24:25;99306.56;;;15.46;95.46
73624;BME280;61921;53.226;-1.296;2022-09-09T04:26:49;99304.51;;;15.46;95.62
73624;BME280;61921;53.226;-1.296;2022-09-09T04:29:14;99305.57;;;15.59;95.28
73624;BME280;61921;53.226;-1.296;2022-09-09T04:31:40;99306.55;;;15.51;95.14
73624;BME280;61921;53.226;-1.296;2022-09-09T04:34:05;99305.67;;;15.64;95.01
73624;BME280;61921;53.226;-1.296;2022-09-09T04:36:31;99306.08;;;15.48;95.35
73624;BME280;61921;53.226;-1.296;2022-09-09T04:38:55;99310.30;;;15.56;95.56
73624;BME280;61921;53.226;-1.296;2022-09-09T04:41:21;99309.63;;;15.70;94.91
73624;BME280;61921;53.226;-1.296;2022-09-09T04:43:46;99311.55;;;15.79;94.67
73624;BME280;61921;53.226;-1.296;2022-09-09T04:46:12;99311.94;;;15.67;94.84
73624;BME280;61921;53.226;-1.296;2022-09-09T04:48:37;99313.90;;;15.59;95.52
73624;BME280;61921;53.226;-1.296;2022-09-09T04:51:04;99316.72;;;15.69;94.95
73624;BME280;61921;53.226;-1.296;2022-09-09T04:53:28;99318.85;;;15.57;95.52
73624;BME280;61921;53.226;-1.296;2022-09-09T04:56:02;99316.69;;;15.56;95.63
73624;BME280;61921;53.226;-1.296;2022-09-09T04:58:19;99318.18;;;15.65;95.09
73624;BME280;61921;53.226;-1.296;2022-09-09T05:00:44;99321.88;;;15.74;94.51
73624;BME280;61921;53.226;-1.296;2022-09-09T05:03:09;99323.36;;;15.64;94.47
73624;BME280;61921;53.226;-1.296;2022-09-09T05:05:35;99329.30;;;15.83;94.25
73624;BME280;61921;53.226;-1.296;2022-09-09T05:08:01;99328.13;;;15.79;93.98
73624;BME280;61921;53.226;-1.296;2022-09-09T05:10:24;99327.11;;;15.63;94.64
73624;BME280;61921;53.226;-1.296;2022-09-09T05:12:52;99332.53;;;15.64;94.97
73624;BME280;61921;53.226;-1.296;2022-09-09T05:15:16;99333.12;;;15.68;94.04
73624;BME280;61921;53.226;-1.296;2022-09-09T05:17:41;99334.83;;;15.67;94.13
73624;BME280;61921;53.226;-1.296;2022-09-09T05:20:07;99337.65;;;15.59;94.57
73624;BME280;61921;53.226;-1.296;2022-09-09T05:22:32;99338.77;;;15.80;93.94
73624;BME280;61921;53.226;-1.296;2022-09-09T05:24:58;99342.17;;;15.81;93.56
73624;BME280;61921;53.226;-1.296;2022-09-09T05:27:24;99342.04;;;15.87;93.37
73624;BME280;61921;53.226;-1.296;2022-09-09T05:29:49;99344.59;;;15.91;93.09
73624;BME280;61921;53.226;-1.296;2022-09-09T05:32:14;99344.57;;;15.85;93.49
73624;BME280;61921;53.226;-1.296;2022-09-09T05:34:40;99348.29;;;15.98;92.78
73624;BME280;61921;53.226;-1.296;2022-09-09T05:37:06;99348.31;;;15.82;93.18
73624;BME280;61921;53.226;-1.296;2022-09-09T05:39:31;99344.82;;;15.79;93.88
73624;BME280;61921;53.226;-1.296;2022-09-09T05:41:56;99345.68;;;15.80;93.84
73624;BME280;61921;53.226;-1.296;2022-09-09T05:44:22;99349.20;;;15.65;94.52
73624;BME280;61921;53.226;-1.296;2022-09-09T05:46:48;99351.66;;;15.61;95.14
73624;BME280;61921;53.226;-1.296;2022-09-09T05:49:14;99353.59;;;15.52;95.39
73624;BME280;61921;53.226;-1.296;2022-09-09T05:51:40;99355.61;;;15.56;95.53
73624;BME280;61921;53.226;-1.296;2022-09-09T05:54:04;99359.15;;;15.48;95.52
73624;BME280;61921;53.226;-1.296;2022-09-09T05:56:30;99363.62;;;15.62;95.20
73624;BME280;61921;53.226;-1.296;2022-09-09T05:58:56;99365.91;;;15.60;95.25
73624;BME280;61921;53.226;-1.296;2022-09-09T06:01:24;99365.47;;;15.61;95.42
73624;BME280;61921;53.226;-1.296;2022-09-09T06:03:48;99366.11;;;15.62;95.12
73624;BME280;61921;53.226;-1.296;2022-09-09T06:06:14;99363.92;;;15.63;95.21
73624;BME280;61921;53.226;-1.296;2022-09-09T06:08:40;99364.27;;;15.57;95.30
73624;BME280;61921;53.226;-1.296;2022-09-09T06:11:06;99366.24;;;15.58;95.50
73624;BME280;61921;53.226;-1.296;2022-09-09T06:13:30;99369.66;;;15.55;95.61
73624;BME280;61921;53.226;-1.296;2022-09-09T06:15:55;99372.38;;;15.61;95.30
73624;BME280;61921;53.226;-1.296;2022-09-09T06:18:22;99376.63;;;15.54;95.36
73624;BME280;61921;53.226;-1.296;2022-09-09T06:20:55;99376.63;;;15.66;95.32
73624;BME280;61921;53.226;-1.296;2022-09-09T06:23:12;99376.49;;;15.64;95.03
73624;BME280;61921;53.226;-1.296;2022-09-09T06:25:38;99379.73;;;15.70;94.85
73624;BME280;61921;53.226;-1.296;2022-09-09T06:28:03;99382.28;;;15.69;94.52
73624;BME280;61921;53.226;-1.296;2022-09-09T06:30:28;99384.39;;;15.75;94.19
73624;BME280;61921;53.226;-1.296;2022-09-09T06:32:55;99388.95;;;15.67;94.48
73624;BME280;61921;53.226;-1.296;2022-09-09T06:35:19;99394.58;;;15.60;94.70
73624;BME280;61921;53.226;-1.296;2022-09-09T06:37:45;99399.14;;;15.65;94.57
73624;BME280;61921;53.226;-1.296;2022-09-09T06:40:10;99401.63;;;15.70;94.36
73624;BME280;61921;53.226;-1.296;2022-09-09T06:42:36;99403.94;;;15.75;94.29
73624;BME280;61921;53.226;-1.296;2022-09-09T06:45:01;99402.81;;;15.82;93.84
73624;BME280;61921;53.226;-1.296;2022-09-09T06:47:28;99398.06;;;16.10;93.07
73624;BME280;61921;53.226;-1.296;2022-09-09T06:49:52;99400.87;;;15.95;92.27
73624;BME280;61921;53.226;-1.296;2022-09-09T06:52:17;99400.43;;;15.97;92.31
73624;BME280;61921;53.226;-1.296;2022-09-09T06:54:42;99402.15;;;16.09;92.35
73624;BME280;61921;53.226;-1.296;2022-09-09T06:57:07;99404.47;;;16.06;92.22
73624;BME280;61921;53.226;-1.296;2022-09-09T06:59:33;99406.66;;;16.14;92.20
73624;BME280;61921;53.226;-1.296;2022-09-09T07:01:58;99408.15;;;16.05;92.20
73624;BME280;61921;53.226;-1.296;2022-09-09T07:04:24;99407.46;;;16.07;92.28
73624;BME280;61921;53.226;-1.296;2022-09-09T07:06:49;99408.81;;;16.09;92.46
73624;BME280;61921;53.226;-1.296;2022-09-09T07:09:16;99411.20;;;16.08;92.19
73624;BME280;61921;53.226;-1.296;2022-09-09T07:11:42;99414.35;;;16.11;92.54
73624;BME280;61921;53.226;-1.296;2022-09-09T07:14:06;99414.12;;;16.14;92.38
73624;BME280;61921;53.226;-1.296;2022-09-09T07:16:31;99416.49;;;16.12;92.23
73624;BME280;61921;53.226;-1.296;2022-09-09T07:18:56;99418.90;;;16.15;92.03
73624;BME280;61921;53.226;-1.296;2022-09-09T07:21:22;99420.68;;;16.14;92.06
73624;BME280;61921;53.226;-1.296;2022-09-09T07:23:47;99425.60;;;16.13;92.12
73624;BME280;61921;53.226;-1.296;2022-09-09T07:26:15;99423.98;;;16.29;91.39
73624;BME280;61921;53.226;-1.296;2022-09-09T07:28:39;99427.95;;;16.45;90.37
73624;BME280;61921;53.226;-1.296;2022-09-09T07:31:05;99432.11;;;16.32;90.25
73624;BME280;61921;53.226;-1.296;2022-09-09T07:33:30;99434.92;;;16.47;90.33
73624;BME280;61921;53.226;-1.296;2022-09-09T07:35:54;99440.07;;;16.35;89.95
73624;BME280;61921;53.226;-1.296;2022-09-09T07:38:19;99444.05;;;16.02;90.47
73624;BME280;61921;53.226;-1.296;2022-09-09T07:40:45;99444.93;;;15.99;90.71
73624;BME280;61921;53.226;-1.296;2022-09-09T07:43:11;99447.67;;;15.93;91.11
73624;BME280;61921;53.226;-1.296;2022-09-09T07:45:36;99446.90;;;16.01;91.05
73624;BME280;61921;53.226;-1.296;2022-09-09T07:48:02;99447.54;;;16.13;90.41
73624;BME280;61921;53.226;-1.296;2022-09-09T07:50:27;99451.89;;;16.15;89.39
73624;BME280;61921;53.226;-1.296;2022-09-09T07:52:53;99452.90;;;16.38;89.99
73624;BME280;61921;53.226;-1.296;2022-09-09T07:55:18;99456.54;;;16.36;89.66
73624;BME280;61921;53.226;-1.296;2022-09-09T07:57:43;99462.85;;;16.66;89.28
73624;BME280;61921;53.226;-1.296;2022-09-09T08:00:10;99464.98;;;16.39;88.99
73624;BME280;61921;53.226;-1.296;2022-09-09T08:02:33;99468.42;;;16.11;90.29
73624;BME280;61921;53.226;-1.296;2022-09-09T08:04:58;99467.96;;;16.15;90.44
73624;BME280;61921;53.226;-1.296;2022-09-09T08:07:23;99469.08;;;16.02;91.36
73624;BME280;61921;53.226;-1.296;2022-09-09T08:09:49;99468.92;;;15.89;91.69
73624;BME280;61921;53.226;-1.296;2022-09-09T08:12:15;99469.68;;;16.03;91.17
73624;BME280;61921;53.226;-1.296;2022-09-09T08:14:40;99473.71;;;15.99;91.28
73624;BME280;61921;53.226;-1.296;2022-09-09T08:17:05;99476.67;;;16.05;91.17
73624;BME280;61921;53.226;-1.296;2022-09-09T08:19:31;99480.67;;;16.23;91.01
73624;BME280;61921;53.226;-1.296;2022-09-09T08:21:56;99479.83;;;16.48;90.10
73624;BME280;61921;53.226;-1.296;2022-09-09T08:24:21;99482.75;;;16.52;89.64
73624;BME280;61921;53.226;-1.296;2022-09-09T08:26:48;99485.29;;;16.98;89.33
73624;BME280;61921;53.226;-1.296;2022-09-09T08:29:13;99485.79;;;16.86;87.26
73624;BME280;61921;53.226;-1.296;2022-09-09T08:31:41;99490.61;;;16.96;88.77
73624;BME280;61921;53.226;-1.296;2022-09-09T08:34:05;99491.53;;;17.02;88.42
73624;BME280;61921;53.226;-1.296;2022-09-09T08:36:31;99494.93;;;16.97;87.75
73624;BME280;61921;53.226;-1.296;2022-09-09T08:38:55;99495.80;;;16.74;88.22
73624;BME280;61921;53.226;-1.296;2022-09-09T08:41:37;99496.63;;;16.66;87.72
73624;BME280;61921;53.226;-1.296;2022-09-09T08:43:46;99501.15;;;16.61;88.78
73624;BME280;61921;53.226;-1.296;2022-09-09T08:46:16;99504.12;;;16.62;88.65
73624;BME280;61921;53.226;-1.296;2022-09-09T08:48:46;99505.99;;;16.67;88.74
73624;BME280;61921;53.226;-1.296;2022-09-09T08:51:01;99510.60;;;16.75;88.57
73624;BME280;61921;53.226;-1.296;2022-09-09T08:53:28;99513.72;;;16.89;88.13
73624;BME280;61921;53.226;-1.296;2022-09-09T08:55:53;99517.78;;;17.06;86.63
73624;BME280;61921;53.226;-1.296;2022-09-09T08:58:20;99518.60;;;17.17;86.29
73624;BME280;61921;53.226;-1.296;2022-09-09T09:00:56;99520.16;;;17.18;85.62
73624;BME280;61921;53.226;-1.296;2022-09-09T09:03:15;99519.72;;;17.41;84.55
73624;BME280;61921;53.226;-1.296;2022-09-09T09:05:40;99522.49;;;17.71;83.64
73624;BME280;61921;53.226;-1.296;2022-09-09T09:08:05;99525.87;;;17.73;83.66
73624;BME280;61921;53.226;-1.296;2022-09-09T09:10:34;99525.61;;;17.47;84.06
73624;BME280;61921;53.226;-1.296;2022-09-09T09:12:50;99529.31;;;17.72;83.30
73624;BME280;61921;53.226;-1.296;2022-09-09T09:15:19;99532.50;;;18.04;82.78
73624;BME280;61921;53.226;-1.296;2022-09-09T09:17:41;99533.43;;;18.61;82.57
73624;BME280;61921;53.226;-1.296;2022-09-09T09:20:12;99530.37;;;18.97;80.68
73624;BME280;61921;53.226;-1.296;2022-09-09T09:22:39;99534.22;;;18.85;80.19
73624;BME280;61921;53.226;-1.296;2022-09-09T09:25:02;99540.73;;;18.27;81.00
73624;BME280;61921;53.226;-1.296;2022-09-09T09:27:31;99541.71;;;18.04;81.40
73624;BME280;61921;53.226;-1.296;2022-09-09T09:29:50;99545.09;;;17.83;81.48
73624;BME280;61921;53.226;-1.296;2022-09-09T09:32:18;99546.28;;;18.36;81.75
73624;BME280;61921;53.226;-1.296;2022-09-09T09:34:40;99551.27;;;18.48;80.31
73624;BME280;61921;53.226;-1.296;2022-09-09T09:37:15;99552.22;;;18.50;80.37
73624;BME280;61921;53.226;-1.296;2022-09-09T09:39:32;99554.15;;;18.33;81.71
73624;BME280;61921;53.226;-1.296;2022-09-09T09:41:56;99557.98;;;18.42;80.73
73624;BME280;61921;53.226;-1.296;2022-09-09T09:44:25;99558.28;;;18.24;80.16
73624;BME280;61921;53.226;-1.296;2022-09-09T09:46:47;99566.05;;;18.18;79.05
73624;BME280;61921;53.226;-1.296;2022-09-09T09:49:12;99568.21;;;18.22;78.41
73624;BME280;61921;53.226;-1.296;2022-09-09T09:51:37;99570.86;;;18.18;79.14
73624;BME280;61921;53.226;-1.296;2022-09-09T09:54:13;99574.46;;;18.31;79.20
73624;BME280;61921;53.226;-1.296;2022-09-09T09:56:28;99574.63;;;18.17;78.17
73624;BME280;61921;53.226;-1.296;2022-09-09T09:58:53;99575.60;;;18.27;76.96
73624;BME280;61921;53.226;-1.296;2022-09-09T10:01:21;99577.73;;;18.15;76.68
73624;BME280;61921;53.226;-1.296;2022-09-09T10:03:50;99576.34;;;18.17;77.20
73624;BME280;61921;53.226;-1.296;2022-09-09T10:06:09;99576.94;;;18.16;76.95
73624;BME280;61921;53.226;-1.296;2022-09-09T10:08:44;99578.92;;;18.13;77.13
73624;BME280;61921;53.226;-1.296;2022-09-09T10:11:09;99577.11;;;18.75;75.90
73624;BME280;61921;53.226;-1.296;2022-09-09T10:13:29;99569.36;;;19.05;74.96
73624;BME280;61921;53.226;-1.296;2022-09-09T10:16:01;99574.46;;;19.41;71.85
73624;BME280;61921;53.226;-1.296;2022-09-09T10:18:29;99570.24;;;19.72;70.16
73624;BME280;61921;53.226;-1.296;2022-09-09T10:20:48;99576.52;;;19.45;70.46
73624;BME280;61921;53.226;-1.296;2022-09-09T10:23:15;99577.32;;;19.36;70.35
73624;BME280;61921;53.226;-1.296;2022-09-09T10:25:41;99579.48;;;19.27;71.31
73624;BME280;61921;53.226;-1.296;2022-09-09T10:30:24;99578.94;;;19.76;70.51
73624;BME280;61921;53.226;-1.296;2022-09-09T10:32:48;99582.51;;;19.32;71.19
73624;BME280;61921;53.226;-1.296;2022-09-09T10:35:19;99588.43;;;18.96;71.27
73624;BME280;61921;53.226;-1.296;2022-09-09T10:37:44;99589.63;;;18.84;72.37
73624;BME280;61921;53.226;-1.296;2022-09-09T10:40:14;99588.51;;;18.55;73.27
73624;BME280;61921;53.226;-1.296;2022-09-09T10:42:31;99589.35;;;19.02;71.95
73624;BME280;61921;53.226;-1.296;2022-09-09T10:45:04;99584.45;;;19.06;71.31
73624;BME280;61921;53.226;-1.296;2022-09-09T10:47:33;99585.16;;;19.39;69.87
73624;BME280;61921;53.226;-1.296;2022-09-09T10:49:59;99586.62;;;19.46;68.70
73624;BME280;61921;53.226;-1.296;2022-09-09T10:52:14;99582.18;;;19.81;67.44
73624;BME280;61921;53.226;-1.296;2022-09-09T10:54:44;99589.93;;;19.71;69.14
73624;BME280;61921;53.226;-1.296;2022-09-09T10:57:04;99594.57;;;19.55;68.58
73624;BME280;61921;53.226;-1.296;2022-09-09T10:59:27;99593.83;;;20.06;68.31
73624;BME280;61921;53.226;-1.296;2022-09-09T11:01:54;99591.44;;;20.61;66.83
73624;BME280;61921;53.226;-1.296;2022-09-09T11:04:19;99588.50;;;20.84;65.07
73624;BME280;61921;53.226;-1.296;2022-09-09T11:06:44;99586.89;;;21.07;66.63
73624;BME280;61921;53.226;-1.296;2022-09-09T11:09:05;99590.50;;;20.53;65.81
73624;BME280;61921;53.226;-1.296;2022-09-09T11:11:34;99588.90;;;21.60;63.69
73624;BME280;61921;53.226;-1.296;2022-09-09T11:14:00;99592.77;;;21.08;65.00
73624;BME280;61921;53.226;-1.296;2022-09-09T11:16:27;99595.35;;;20.33;65.55
73624;BME280;61921;53.226;-1.296;2022-09-09T11:18:46;99594.17;;;20.36;66.62
73624;BME280;61921;53.226;-1.296;2022-09-09T11:21:16;99593.90;;;20.34;66.08
73624;BME280;61921;53.226;-1.296;2022-09-09T11:23:41;99591.14;;;20.76;66.17
73624;BME280;61921;53.226;-1.296;2022-09-09T11:26:03;99588.76;;;21.23;61.93
73624;BME280;61921;53.226;-1.296;2022-09-09T11:28:38;99587.59;;;21.43;61.48
73624;BME280;61921;53.226;-1.296;2022-09-09T11:31:03;99587.21;;;21.79;59.56
73624;BME280;61921;53.226;-1.296;2022-09-09T11:33:28;99587.65;;;21.47;60.90
73624;BME280;61921;53.226;-1.296;2022-09-09T11:35:53;99590.55;;;21.93;62.52
73624;BME280;61921;53.226;-1.296;2022-09-09T11:38:16;99585.88;;;21.48;61.12
73624;BME280;61921;53.226;-1.296;2022-09-09T11:40:33;99585.83;;;21.88;60.00
73624;BME280;61921;53.226;-1.296;2022-09-09T11:43:04;99587.01;;;21.62;60.34
73624;BME280;61921;53.226;-1.296;2022-09-09T11:45:24;99588.22;;;22.15;59.80
73624;BME280;61921;53.226;-1.296;2022-09-09T11:47:52;99589.80;;;21.84;60.40
73624;BME280;61921;53.226;-1.296;2022-09-09T11:52:40;99591.28;;;22.12;57.20
73624;BME280;61921;53.226;-1.296;2022-09-09T11:55:09;99594.87;;;22.24;57.69
73624;BME280;61921;53.226;-1.296;2022-09-09T11:57:32;99595.58;;;22.24;56.35
73624;BME280;61921;53.226;-1.296;2022-09-09T11:59:53;99593.34;;;22.74;56.26
73624;BME280;61921;53.226;-1.296;2022-09-09T12:02:22;99596.08;;;22.85;55.70
73624;BME280;61921;53.226;-1.296;2022-09-09T12:04:46;99602.09;;;22.50;55.77
73624;BME280;61921;53.226;-1.296;2022-09-09T12:07:24;99598.54;;;23.00;56.16
73624;BME280;61921;53.226;-1.296;2022-09-09T12:09:44;99595.00;;;23.67;53.06
73624;BME280;61921;53.226;-1.296;2022-09-09T12:12:07;99598.59;;;24.16;53.71
73624;BME280;61921;53.226;-1.296;2022-09-09T12:16:49;99594.47;;;23.77;51.07
73624;BME280;61921;53.226;-1.296;2022-09-09T12:19:17;99599.05;;;23.29;51.62
73624;BME280;61921;53.226;-1.296;2022-09-09T12:21:45;99599.86;;;23.33;52.30
73624;BME280;61921;53.226;-1.296;2022-09-09T12:24:07;99591.44;;;23.68;51.45
73624;BME280;61921;53.226;-1.296;2022-09-09T12:26:33;99586.48;;;23.79;53.07
73624;BME280;61921;53.226;-1.296;2022-09-09T12:29:03;99583.66;;;24.09;50.92
73624;BME280;61921;53.226;-1.296;2022-09-09T12:31:22;99581.25;;;24.28;51.61
73624;BME280;61921;53.226;-1.296;2022-09-09T12:33:46;99577.25;;;24.87;50.17
73624;BME280;61921;53.226;-1.296;2022-09-09T12:36:13;99577.99;;;25.14;49.65
73624;BME280;61921;53.226;-1.296;2022-09-09T12:38:40;99597.75;;;23.49;53.74
73624;BME280;61921;53.226;-1.296;2022-09-09T12:41:03;99604.26;;;22.47;57.65
73624;BME280;61921;53.226;-1.296;2022-09-09T12:43:28;99609.55;;;21.71;58.24
73624;BME280;61921;53.226;-1.296;2022-09-09T12:45:57;99614.30;;;21.42;58.95